Time;durP1;ratioP1;P1;durP2;ratioP2;P2;SDS_P1;SDS_P2;PMS_P1;PMS_P2;Temp;Humidity;BMP_temperature;BMP_pressure;BME280_temperature;BME280_humidity;BME280_pressure;Samples;Min_cycle;Max_cycle;Signal;HPM_P1;HPM_P2
2023/04/11 00:01:55;;;;;;;8.43;6.85;;;;;;;;;;5085914;28;20024;-73
2023/04/11 00:04:24;;;;;;;9.65;7.35;;;;;;;;;;5081791;28;20024;-73
2023/04/11 00:06:50;;;;;;;9.10;6.15;;;;;;;;;;5092564;28;20024;-75
2023/04/11 00:09:16;;;;;;;8.35;6.75;;;;;;;;;;5074936;28;20593;-73
2023/04/11 00:11:42;;;;;;;8.93;6.32;;;;;;;;;;5088840;28;20074;-74
2023/04/11 00:14:09;;;;;;;9.52;6.47;;;;;;;;;;5079674;28;20093;-74
2023/04/11 00:16:35;;;;;;;7.88;6.45;;;;;;;;;;5092284;28;20028;-73
2023/04/11 00:19:01;;;;;;;8.40;6.45;;;;;;;;;;5076599;28;20064;-72
2023/04/11 00:21:27;;;;;;;8.15;6.38;;;;;;;;;;5090454;28;20077;-73
2023/04/11 00:23:53;;;;;;;8.98;6.57;;;;;;;;;;5086890;28;20024;-74
2023/04/11 00:26:23;;;;;;;9.73;7.43;;;;;;;;;;5080873;28;20046;-74
2023/04/11 00:28:49;;;;;;;9.48;6.78;;;;;;;;;;5091247;28;20086;-73
2023/04/11 00:31:15;;;;;;;9.57;6.68;;;;;;;;;;5075205;28;20036;-74
2023/04/11 00:33:41;;;;;;;9.02;6.97;;;;;;;;;;5075563;28;20027;-74
2023/04/11 00:36:07;;;;;;;8.07;6.60;;;;;;;;;;5084176;28;20051;-71
2023/04/11 00:38:35;;;;;;;8.88;6.32;;;;;;;;;;5080495;28;20510;-74
2023/04/11 00:41:01;;;;;;;8.95;6.35;;;;;;;;;;5086989;28;20035;-75
2023/04/11 00:43:27;;;;;;;8.50;6.68;;;;;;;;;;5091064;28;20020;-74
2023/04/11 00:45:53;;;;;;;9.77;6.22;;;;;;;;;;5078667;28;20072;-75
2023/04/11 00:48:19;;;;;;;11.55;6.45;;;;;;;;;;5092679;28;20087;-75
2023/04/11 00:50:45;;;;;;;7.88;6.22;;;;;;;;;;5080807;28;20406;-74
2023/04/11 00:53:12;;;;;;;8.60;6.40;;;;;;;;;;5091454;28;20016;-75
2023/04/11 00:55:38;;;;;;;9.68;7.10;;;;;;;;;;5090383;28;20025;-74
2023/04/11 00:58:04;;;;;;;8.65;6.38;;;;;;;;;;5077462;28;20028;-73
2023/04/11 01:00:34;;;;;;;7.70;6.47;;;;;;;;;;5091370;28;20024;-74
2023/04/11 01:03:00;;;;;;;7.35;5.85;;;;;;;;;;5075758;28;20394;-74
2023/04/11 01:05:26;;;;;;;7.50;6.20;;;;;;;;;;5088174;28;20024;-72
2023/04/11 01:07:54;;;;;;;7.05;5.70;;;;;;;;;;5085849;28;20474;-73
2023/04/11 01:10:21;;;;;;;6.82;5.97;;;;;;;;;;5080101;28;20020;-72
2023/04/11 01:12:47;;;;;;;9.20;6.80;;;;;;;;;;5091408;28;20523;-73
2023/04/11 01:15:13;;;;;;;7.07;5.85;;;;;;;;;;5074912;28;20500;-73
2023/04/11 01:17:40;;;;;;;8.10;6.50;;;;;;;;;;5090178;28;20028;-73
2023/04/11 01:20:07;;;;;;;8.38;6.50;;;;;;;;;;5083867;28;20505;-72
2023/04/11 01:22:34;;;;;;;7.55;5.80;;;;;;;;;;5081759;28;20501;-71
2023/04/11 01:25:01;;;;;;;6.35;5.68;;;;;;;;;;5089754;28;20028;-72
2023/04/11 01:27:27;;;;;;;8.07;6.00;;;;;;;;;;5073549;28;20044;-72
2023/04/11 01:29:53;;;;;;;7.93;6.18;;;;;;;;;;5085638;28;20486;-73
2023/04/11 01:32:19;;;;;;;7.25;6.22;;;;;;;;;;5079881;28;20024;-73
2023/04/11 01:34:45;;;;;;;8.70;6.40;;;;;;;;;;5087610;28;20077;-73
2023/04/11 01:37:11;;;;;;;10.50;7.07;;;;;;;;;;5086221;28;20028;-73
2023/04/11 01:39:37;;;;;;;7.55;6.47;;;;;;;;;;5074216;28;20096;-73
2023/04/11 01:42:04;;;;;;;8.07;6.57;;;;;;;;;;5084316;28;20427;-73
2023/04/11 01:44:31;;;;;;;8.85;6.05;;;;;;;;;;5081144;28;20020;-72
2023/04/11 01:46:57;;;;;;;7.70;6.38;;;;;;;;;;5091439;28;20032;-72
2023/04/11 01:49:25;;;;;;;10.95;6.40;;;;;;;;;;5080080;28;20052;-73
2023/04/11 01:51:51;;;;;;;9.18;6.80;;;;;;;;;;5092571;28;20028;-74
2023/04/11 01:54:17;;;;;;;8.70;6.47;;;;;;;;;;5085845;28;20613;-74
2023/04/11 01:56:43;;;;;;;8.15;6.45;;;;;;;;;;5097642;28;20039;-74
2023/04/11 01:59:09;;;;;;;7.88;6.65;;;;;;;;;;5079057;28;20051;-74
2023/04/11 02:01:35;;;;;;;9.23;6.75;;;;;;;;;;5096734;28;20723;-73
2023/04/11 02:04:01;;;;;;;8.77;6.65;;;;;;;;;;5091142;28;20027;-72
2023/04/11 02:06:27;;;;;;;9.07;7.00;;;;;;;;;;5087156;28;20018;-73
2023/04/11 02:08:53;;;;;;;9.10;6.75;;;;;;;;;;5096683;28;20054;-73
2023/04/11 02:11:20;;;;;;;9.13;6.82;;;;;;;;;;5079372;28;20131;-73
2023/04/11 02:13:46;;;;;;;8.50;6.65;;;;;;;;;;5093203;28;20095;-73
2023/04/11 02:16:13;;;;;;;8.98;5.97;;;;;;;;;;5085362;28;20059;-73
2023/04/11 02:18:40;;;;;;;9.40;6.55;;;;;;;;;;5096577;28;20107;-74
2023/04/11 02:21:06;;;;;;;8.30;5.97;;;;;;;;;;5081831;28;20025;-73
2023/04/11 02:23:33;;;;;;;9.00;6.07;;;;;;;;;;5096437;28;20027;-72
2023/04/11 02:26:00;;;;;;;7.43;5.85;;;;;;;;;;5091318;28;20027;-73
2023/04/11 02:28:26;;;;;;;9.35;6.47;;;;;;;;;;5086205;28;20023;-73
2023/04/11 02:30:52;;;;;;;8.90;6.60;;;;;;;;;;5096036;28;20060;-73
2023/04/11 02:33:19;;;;;;;7.70;6.32;;;;;;;;;;5080553;28;20028;-73
2023/04/11 02:35:46;;;;;;;9.32;6.30;;;;;;;;;;5089592;28;20024;-72
2023/04/11 02:38:12;;;;;;;7.95;6.30;;;;;;;;;;5087189;28;20028;-72
2023/04/11 02:40:38;;;;;;;8.30;5.97;;;;;;;;;;5088552;28;20031;-72
2023/04/11 02:43:04;;;;;;;7.43;5.95;;;;;;;;;;5097358;28;20024;-72
2023/04/11 02:45:30;;;;;;;7.68;5.80;;;;;;;;;;5080546;28;20031;-73
2023/04/11 02:47:57;;;;;;;7.72;6.00;;;;;;;;;;5090589;28;20065;-73
2023/04/11 02:50:24;;;;;;;11.82;6.10;;;;;;;;;;5086585;28;20020;-74
2023/04/11 02:52:51;;;;;;;8.60;5.30;;;;;;;;;;5097428;28;20073;-74
2023/04/11 02:55:17;;;;;;;8.00;5.78;;;;;;;;;;5080293;28;20025;-73
2023/04/11 02:57:43;;;;;;;7.30;5.00;;;;;;;;;;5092289;28;20016;-73
2023/04/11 03:00:09;;;;;;;5.82;5.07;;;;;;;;;;5081830;28;20028;-72
2023/04/11 03:02:35;;;;;;;8.63;5.70;;;;;;;;;;5093629;28;20024;-72
2023/04/11 03:05:02;;;;;;;9.20;6.25;;;;;;;;;;5078863;28;20103;-73
2023/04/11 03:07:31;;;;;;;8.10;5.80;;;;;;;;;;5091506;28;20024;-74
2023/04/11 03:09:57;;;;;;;7.13;5.72;;;;;;;;;;5087821;28;20107;-73
2023/04/11 03:12:23;;;;;;;8.38;5.72;;;;;;;;;;5082926;28;20161;-74
2023/04/11 03:14:49;;;;;;;9.82;5.97;;;;;;;;;;5093434;28;20028;-74
2023/04/11 03:17:15;;;;;;;9.10;5.82;;;;;;;;;;5075632;28;20059;-74
2023/04/11 03:19:41;;;;;;;8.15;6.05;;;;;;;;;;5090608;28;20028;-74
2023/04/11 03:22:10;;;;;;;8.82;5.70;;;;;;;;;;5088631;28;20111;-74
2023/04/11 03:24:38;;;;;;;7.97;5.80;;;;;;;;;;5082547;28;20032;-73
2023/04/11 03:27:04;;;;;;;7.70;5.50;;;;;;;;;;5088140;28;20026;-71
2023/04/11 03:29:31;;;;;;;7.85;5.97;;;;;;;;;;5090742;28;20490;-73
2023/04/11 03:31:57;;;;;;;7.18;5.50;;;;;;;;;;5078334;28;20028;-73
2023/04/11 03:34:24;;;;;;;7.05;5.65;;;;;;;;;;5092660;28;20097;-73
2023/04/11 03:36:51;;;;;;;9.13;6.20;;;;;;;;;;5089995;28;20036;-74
2023/04/11 03:39:17;;;;;;;8.40;5.95;;;;;;;;;;5074607;28;20024;-73
2023/04/11 03:41:43;;;;;;;8.75;6.07;;;;;;;;;;5089212;28;20036;-73
2023/04/11 03:44:09;;;;;;;6.68;5.43;;;;;;;;;;5080309;28;20502;-73
2023/04/11 03:46:35;;;;;;;9.05;5.93;;;;;;;;;;5092976;28;20059;-73
2023/04/11 03:49:01;;;;;;;9.00;6.00;;;;;;;;;;5075058;28;20029;-72
2023/04/11 03:51:27;;;;;;;8.93;5.70;;;;;;;;;;5089259;28;20034;-73
2023/04/11 03:53:53;;;;;;;9.85;6.05;;;;;;;;;;5078050;28;20016;-72
2023/04/11 03:56:19;;;;;;;10.35;6.63;;;;;;;;;;5092685;28;20421;-73
2023/04/11 03:58:45;;;;;;;10.05;6.78;;;;;;;;;;5077041;28;20059;-73
2023/04/11 04:01:11;;;;;;;9.18;6.30;;;;;;;;;;5088655;28;20031;-73
2023/04/11 04:03:37;;;;;;;11.45;6.97;;;;;;;;;;5089552;28;20028;-74
2023/04/11 04:06:03;;;;;;;10.90;6.47;;;;;;;;;;5077778;28;20092;-75
2023/04/11 04:08:29;;;;;;;8.52;6.35;;;;;;;;;;5081271;28;20437;-74
2023/04/11 04:10:55;;;;;;;8.93;6.22;;;;;;;;;;5085645;28;20443;-73
2023/04/11 04:13:21;;;;;;;9.63;6.72;;;;;;;;;;5091821;28;20044;-73
2023/04/11 04:15:50;;;;;;;8.30;7.10;;;;;;;;;;5076917;28;20032;-74
2023/04/11 04:18:16;;;;;;;8.95;6.68;;;;;;;;;;5091397;28;20020;-73
2023/04/11 04:20:42;;;;;;;11.27;8.00;;;;;;;;;;5080096;28;20062;-72
2023/04/11 04:23:08;;;;;;;10.25;7.75;;;;;;;;;;5088147;28;20024;-70
2023/04/11 04:25:34;;;;;;;8.68;6.95;;;;;;;;;;5089376;28;20020;-72
2023/04/11 04:28:00;;;;;;;8.80;7.00;;;;;;;;;;5077377;28;20046;-73
2023/04/11 04:30:27;;;;;;;11.13;7.90;;;;;;;;;;5090573;28;20427;-72
2023/04/11 04:32:57;;;;;;;9.73;7.28;;;;;;;;;;5077938;28;20029;-73
2023/04/11 04:35:23;;;;;;;9.45;7.40;;;;;;;;;;5088337;28;20103;-73
2023/04/11 04:37:49;;;;;;;10.27;7.50;;;;;;;;;;5075949;28;20031;-72
2023/04/11 04:40:19;;;;;;;9.98;7.90;;;;;;;;;;5083446;28;20025;-72
2023/04/11 04:42:48;;;;;;;10.13;7.57;;;;;;;;;;5084285;28;20093;-73
2023/04/11 04:45:15;;;;;;;10.45;8.30;;;;;;;;;;5091923;28;20440;-72
2023/04/11 04:47:41;;;;;;;9.57;7.32;;;;;;;;;;5074617;28;20042;-73
2023/04/11 04:50:07;;;;;;;10.73;7.78;;;;;;;;;;5084146;28;20530;-73
2023/04/11 04:52:33;;;;;;;10.52;8.00;;;;;;;;;;5082444;28;20077;-74
2023/04/11 04:55:00;;;;;;;13.25;8.43;;;;;;;;;;5091685;28;20023;-74
2023/04/11 04:57:27;;;;;;;12.68;8.75;;;;;;;;;;5072890;28;20058;-74
2023/04/11 04:59:53;;;;;;;10.32;8.02;;;;;;;;;;5086106;28;20029;-74
2023/04/11 05:02:20;;;;;;;12.10;9.45;;;;;;;;;;5080084;28;20020;-74
2023/04/11 05:04:48;;;;;;;14.45;8.90;;;;;;;;;;5091393;28;20020;-74
2023/04/11 05:07:15;;;;;;;14.82;9.38;;;;;;;;;;5072616;28;20102;-75
2023/04/11 05:09:41;;;;;;;11.52;8.88;;;;;;;;;;5074781;28;20059;-76
2023/04/11 05:12:07;;;;;;;13.00;9.43;;;;;;;;;;5083899;28;20024;-74
2023/04/11 05:14:33;;;;;;;11.90;8.65;;;;;;;;;;5081985;28;20039;-73
2023/04/11 05:16:59;;;;;;;11.63;8.93;;;;;;;;;;5090249;28;20406;-73
2023/04/11 05:19:25;;;;;;;11.85;8.60;;;;;;;;;;5073755;28;20058;-72
2023/04/11 05:21:51;;;;;;;11.55;8.38;;;;;;;;;;5085890;28;20020;-73
2023/04/11 05:24:17;;;;;;;11.88;8.25;;;;;;;;;;5079423;28;20542;-73
2023/04/11 05:26:44;;;;;;;10.45;8.35;;;;;;;;;;5091288;28;20020;-74
2023/04/11 05:29:11;;;;;;;9.40;7.45;;;;;;;;;;5074234;28;20020;-73
2023/04/11 05:31:37;;;;;;;10.93;8.82;;;;;;;;;;5090548;28;20023;-73
2023/04/11 05:34:03;;;;;;;10.48;8.30;;;;;;;;;;5084663;28;20024;-73
2023/04/11 05:36:30;;;;;;;10.65;8.48;;;;;;;;;;5088744;28;20061;-72
2023/04/11 05:38:56;;;;;;;11.00;8.38;;;;;;;;;;5076318;28;20460;-73
2023/04/11 05:41:22;;;;;;;10.27;7.75;;;;;;;;;;5088397;28;20504;-74
2023/04/11 05:43:48;;;;;;;10.98;8.38;;;;;;;;;;5086204;28;20051;-72
2023/04/11 05:46:14;;;;;;;11.07;8.63;;;;;;;;;;5079106;28;20385;-74
2023/04/11 05:48:40;;;;;;;12.23;7.97;;;;;;;;;;5088576;28;20065;-73
2023/04/11 05:51:07;;;;;;;10.32;8.25;;;;;;;;;;5075348;28;20402;-74
2023/04/11 05:53:33;;;;;;;10.27;7.82;;;;;;;;;;5091052;28;20028;-74
2023/04/11 05:56:00;;;;;;;10.63;8.60;;;;;;;;;;5084682;28;20024;-75
2023/04/11 05:58:26;;;;;;;10.85;8.25;;;;;;;;;;5078644;28;20020;-74
2023/04/11 06:00:52;;;;;;;12.95;7.95;;;;;;;;;;5090737;28;20060;-73
2023/04/11 06:03:18;;;;;;;10.93;8.20;;;;;;;;;;5074137;28;20401;-73
2023/04/11 06:05:45;;;;;;;11.32;8.48;;;;;;;;;;5085472;28;20016;-74
2023/04/11 06:08:11;;;;;;;10.60;7.60;;;;;;;;;;5077479;28;20119;-74
2023/04/11 06:10:37;;;;;;;10.75;7.60;;;;;;;;;;5090545;28;20020;-73
2023/04/11 06:13:03;;;;;;;13.63;7.88;;;;;;;;;;5075774;28;20033;-73
2023/04/11 06:15:29;;;;;;;14.40;9.32;;;;;;;;;;5089162;28;20346;-73
2023/04/11 06:17:55;;;;;;;10.85;7.93;;;;;;;;;;5084132;28;20425;-74
2023/04/11 06:20:22;;;;;;;9.95;7.70;;;;;;;;;;5079423;28;20032;-74
2023/04/11 06:22:50;;;;;;;12.70;8.45;;;;;;;;;;5090546;28;20020;-75
2023/04/11 06:25:16;;;;;;;10.55;8.18;;;;;;;;;;5074210;28;20020;-73
2023/04/11 06:27:42;;;;;;;11.32;7.95;;;;;;;;;;5086580;28;20021;-72
2023/04/11 06:30:08;;;;;;;11.25;8.20;;;;;;;;;;5076530;28;20117;-74
2023/04/11 06:32:35;;;;;;;12.55;7.80;;;;;;;;;;5090645;28;20032;-74
2023/04/11 06:35:01;;;;;;;13.60;8.15;;;;;;;;;;5083824;28;20020;-74
2023/04/11 06:37:29;;;;;;;9.68;7.32;;;;;;;;;;5091979;28;20035;-75
2023/04/11 06:39:55;;;;;;;10.45;7.57;;;;;;;;;;5079777;28;20032;-73
2023/04/11 06:42:21;;;;;;;9.50;7.18;;;;;;;;;;5094228;28;20026;-75
2023/04/11 06:44:48;;;;;;;9.95;8.07;;;;;;;;;;5082528;28;20020;-72
2023/04/11 06:47:14;;;;;;;11.90;7.35;;;;;;;;;;5092097;28;20035;-72
2023/04/11 06:49:41;;;;;;;9.15;6.63;;;;;;;;;;5081232;28;20032;-72
2023/04/11 06:52:07;;;;;;;10.45;7.47;;;;;;;;;;5085295;28;20560;-73
2023/04/11 06:54:33;;;;;;;9.13;7.03;;;;;;;;;;5083648;28;20100;-74
2023/04/11 06:56:59;;;;;;;9.25;7.15;;;;;;;;;;5087645;28;20090;-74
2023/04/11 06:59:25;;;;;;;11.18;7.93;;;;;;;;;;5089852;28;20366;-73
2023/04/11 07:01:51;;;;;;;11.82;7.38;;;;;;;;;;5076542;28;20099;-74
2023/04/11 07:04:17;;;;;;;9.98;7.40;;;;;;;;;;5091858;28;20099;-72
2023/04/11 07:06:43;;;;;;;12.77;8.90;;;;;;;;;;5079104;28;20104;-73
2023/04/11 07:09:09;;;;;;;11.57;8.65;;;;;;;;;;5085017;28;20024;-74
2023/04/11 07:11:37;;;;;;;16.58;8.55;;;;;;;;;;5090288;28;20046;-74
2023/04/11 07:14:03;;;;;;;10.50;7.30;;;;;;;;;;5085927;28;20021;-74
2023/04/11 07:16:29;;;;;;;10.45;8.55;;;;;;;;;;5083440;28;20052;-74
2023/04/11 07:18:55;;;;;;;11.75;7.97;;;;;;;;;;5092572;28;20032;-74
2023/04/11 07:21:22;;;;;;;12.07;8.02;;;;;;;;;;5076589;28;20021;-74
2023/04/11 07:23:48;;;;;;;13.05;8.07;;;;;;;;;;5092183;28;20481;-76
2023/04/11 07:26:15;;;;;;;10.23;7.63;;;;;;;;;;5091257;28;20103;-76
2023/04/11 07:28:43;;;;;;;15.63;7.38;;;;;;;;;;5080132;28;20020;-77
2023/04/11 07:31:09;;;;;;;13.43;7.15;;;;;;;;;;5088805;28;20032;-72
2023/04/11 07:33:38;;;;;;;9.82;6.57;;;;;;;;;;5090325;28;20032;-72
2023/04/11 07:36:05;;;;;;;10.77;6.25;;;;;;;;;;5085928;28;20100;-71
2023/04/11 07:38:32;;;;;;;11.15;6.40;;;;;;;;;;5081453;28;20036;-71
2023/04/11 07:40:59;;;;;;;8.60;5.47;;;;;;;;;;5086822;28;20089;-72
2023/04/11 07:43:26;;;;;;;11.18;5.97;;;;;;;;;;5090084;28;20101;-72
2023/04/11 07:45:53;;;;;;;7.75;5.22;;;;;;;;;;5076961;28;20024;-71
2023/04/11 07:48:20;;;;;;;7.55;5.70;;;;;;;;;;5091848;28;20060;-71
2023/04/11 07:50:46;;;;;;;7.85;5.53;;;;;;;;;;5079736;28;20048;-71
2023/04/11 07:53:13;;;;;;;10.45;5.57;;;;;;;;;;5088928;28;20507;-72
2023/04/11 07:55:39;;;;;;;7.38;5.22;;;;;;;;;;5089515;28;20143;-73
2023/04/11 07:58:05;;;;;;;7.38;5.15;;;;;;;;;;5078822;28;20028;-73
2023/04/11 08:00:32;;;;;;;7.93;5.13;;;;;;;;;;5092843;28;20099;-72
2023/04/11 08:03:03;;;;;;;8.95;5.38;;;;;;;;;;5077364;28;20402;-72
2023/04/11 08:05:29;;;;;;;9.75;4.85;;;;;;;;;;5091355;28;20046;-72
2023/04/11 08:07:56;;;;;;;7.50;4.82;;;;;;;;;;5085807;28;20031;-72
2023/04/11 08:10:22;;;;;;;7.00;4.70;;;;;;;;;;5080915;28;20028;-72
2023/04/11 08:12:49;;;;;;;9.68;5.28;;;;;;;;;;5092379;28;20028;-73
2023/04/11 08:15:15;;;;;;;5.85;4.80;;;;;;;;;;5075623;28;20130;-71
2023/04/11 08:17:42;;;;;;;5.65;4.60;;;;;;;;;;5074705;28;20036;-72
2023/04/11 08:20:09;;;;;;;6.30;4.35;;;;;;;;;;5084640;28;20387;-72
2023/04/11 08:22:35;;;;;;;6.47;3.92;;;;;;;;;;5082820;28;20031;-72
2023/04/11 08:25:01;;;;;;;6.78;3.90;;;;;;;;;;5091926;28;20019;-71
2023/04/11 08:27:27;;;;;;;5.93;3.70;;;;;;;;;;5074486;28;20025;-73
2023/04/11 08:29:53;;;;;;;5.10;3.47;;;;;;;;;;5086500;28;20158;-73
2023/04/11 08:32:19;;;;;;;7.95;3.63;;;;;;;;;;5080535;28;20103;-71
2023/04/11 08:34:45;;;;;;;6.00;3.30;;;;;;;;;;5088333;28;20628;-72
2023/04/11 08:37:11;;;;;;;4.10;2.85;;;;;;;;;;5087049;28;20047;-71
2023/04/11 08:39:37;;;;;;;4.03;3.05;;;;;;;;;;5074274;28;20102;-73
2023/04/11 08:42:03;;;;;;;4.70;3.33;;;;;;;;;;5084813;28;20024;-71
2023/04/11 08:44:29;;;;;;;4.88;3.75;;;;;;;;;;5081954;28;20468;-73
2023/04/11 08:46:55;;;;;;;5.43;3.30;;;;;;;;;;5091730;28;20055;-72
2023/04/11 08:49:21;;;;;;;6.03;3.17;;;;;;;;;;5074972;28;20052;-73
2023/04/11 08:51:48;;;;;;;5.25;2.92;;;;;;;;;;5086652;28;20447;-72
2023/04/11 08:54:15;;;;;;;4.55;2.85;;;;;;;;;;5079525;28;20020;-72
2023/04/11 08:56:42;;;;;;;5.68;3.60;;;;;;;;;;5089499;28;20024;-71
2023/04/11 08:59:08;;;;;;;5.95;3.80;;;;;;;;;;5074535;28;20021;-71
2023/04/11 09:01:36;;;;;;;4.85;3.35;;;;;;;;;;5089933;28;20036;-73
2023/04/11 09:04:06;;;;;;;6.05;2.80;;;;;;;;;;5084878;28;20020;-72
2023/04/11 09:06:32;;;;;;;4.28;2.78;;;;;;;;;;5081743;28;20016;-73
2023/04/11 09:09:05;;;;;;;4.10;2.80;;;;;;;;;;5090851;28;20024;-74
2023/04/11 09:11:50;;;;;;;4.60;2.63;;;;;;;;;;5074609;28;20032;-73
2023/04/11 09:14:16;;;;;;;4.03;2.53;;;;;;;;;;5082796;28;20020;-73
2023/04/11 09:17:05;;;;;;;10.07;3.30;;;;;;;;;;5083074;28;20021;-73
2023/04/11 09:19:32;;;;;;;4.20;2.25;;;;;;;;;;5088523;28;20437;-72
2023/04/11 09:21:59;;;;;;;6.68;2.63;;;;;;;;;;5077070;28;20385;-70
2023/04/11 09:24:25;;;;;;;7.55;3.00;;;;;;;;;;5091420;28;20021;-72
2023/04/11 09:27:06;;;;;;;7.72;2.20;;;;;;;;;;5077444;28;20063;-72
2023/04/11 09:29:39;;;;;;;4.72;2.47;;;;;;;;;;5089585;28;20076;-72
2023/04/11 09:32:06;;;;;;;7.72;1.95;;;;;;;;;;5083993;28;20017;-71
2023/04/11 09:34:33;;;;;;;5.60;2.20;;;;;;;;;;5081422;28;20076;-72
2023/04/11 09:37:00;;;;;;;4.45;2.10;;;;;;;;;;5076169;28;20108;-72
2023/04/11 09:39:28;;;;;;;6.40;2.45;;;;;;;;;;5082409;28;20035;-72
2023/04/11 09:41:54;;;;;;;8.85;2.70;;;;;;;;;;5074138;28;20016;-72
2023/04/11 09:44:34;;;;;;;6.03;2.13;;;;;;;;;;5080055;28;20412;-72
2023/04/11 09:47:00;;;;;;;4.07;2.13;;;;;;;;;;5084484;28;20032;-71
2023/04/11 09:49:26;;;;;;;8.55;2.38;;;;;;;;;;5087940;28;20363;-72
2023/04/11 09:51:52;;;;;;;6.50;2.17;;;;;;;;;;5075561;28;20439;-73
2023/04/11 09:54:21;;;;;;;4.50;2.15;;;;;;;;;;5090446;28;20034;-70
2023/04/11 09:56:48;;;;;;;4.15;2.30;;;;;;;;;;5077722;28;20397;-71
2023/04/11 09:59:15;;;;;;;3.95;1.83;;;;;;;;;;5085892;28;20017;-73
2023/04/11 10:01:41;;;;;;;3.55;1.83;;;;;;;;;;5073796;28;20013;-72
2023/04/11 10:04:09;;;;;;;5.90;2.17;;;;;;;;;;5083409;28;20012;-72
2023/04/11 10:07:07;;;;;;;13.52;2.90;;;;;;;;;;5081527;28;20028;-72
2023/04/11 10:09:37;;;;;;;6.53;2.00;;;;;;;;;;5054052;28;20035;-71
2023/04/11 10:12:03;;;;;;;5.28;2.22;;;;;;;;;;5086456;28;20023;-70
2023/04/11 10:14:40;;;;;;;5.85;2.03;;;;;;;;;;5087344;28;20058;-72
2023/04/11 10:17:15;;;;;;;6.18;2.53;;;;;;;;;;5088086;28;20024;-72
2023/04/11 10:19:43;;;;;;;7.22;2.17;;;;;;;;;;5076924;28;20099;-72
2023/04/11 10:22:10;;;;;;;4.72;2.17;;;;;;;;;;5086723;28;20096;-71
2023/04/11 10:24:36;;;;;;;5.05;2.05;;;;;;;;;;5085354;28;20016;-72
2023/04/11 10:27:06;;;;;;;5.53;2.03;;;;;;;;;;5093781;28;20165;-72
2023/04/11 10:29:32;;;;;;;5.53;2.42;;;;;;;;;;5076928;28;20509;-72
2023/04/11 10:32:10;;;;;;;5.85;2.20;;;;;;;;;;5090098;28;20060;-71
2023/04/11 10:34:40;;;;;;;4.57;1.83;;;;;;;;;;5075581;28;20024;-72
2023/04/11 10:37:07;;;;;;;4.05;2.10;;;;;;;;;;5077976;28;20043;-71
2023/04/11 10:39:51;;;;;;;4.65;1.95;;;;;;;;;;5090385;28;20024;-73
2023/04/11 10:42:40;;;;;;;7.15;2.40;;;;;;;;;;5082680;28;20020;-71
2023/04/11 10:45:23;;;;;;;7.55;2.28;;;;;;;;;;5094095;28;20384;-71
2023/04/11 10:47:58;;;;;;;6.68;2.10;;;;;;;;;;5076159;28;20035;-72
2023/04/11 10:50:30;;;;;;;9.55;2.28;;;;;;;;;;5092744;28;20028;-72
2023/04/11 10:53:06;;;;;;;5.75;1.92;;;;;;;;;;5078541;28;20029;-72
2023/04/11 10:55:42;;;;;;;5.90;1.88;;;;;;;;;;5091415;28;20116;-70
2023/04/11 10:58:13;;;;;;;5.95;2.00;;;;;;;;;;5085134;28;20028;-72
2023/04/11 11:00:51;;;;;;;8.60;3.65;;;;;;;;;;5083991;28;20478;-73
2023/04/11 11:03:24;;;;;;;5.93;2.30;;;;;;;;;;5075750;28;20048;-73
2023/04/11 11:05:59;;;;;;;7.25;2.50;;;;;;;;;;5088988;28;20720;-72
2023/04/11 11:08:31;;;;;;;7.22;1.98;;;;;;;;;;5082326;28;20099;-71
2023/04/11 11:11:01;;;;;;;3.78;2.35;;;;;;;;;;5093589;28;20537;-71
2023/04/11 11:13:37;;;;;;;3.78;2.00;;;;;;;;;;5092181;28;20035;-71
2023/04/11 11:16:04;;;;;;;4.68;1.77;;;;;;;;;;5091700;28;20059;-71
2023/04/11 11:18:30;;;;;;;3.28;1.90;;;;;;;;;;5092830;28;20099;-72
2023/04/11 11:20:56;;;;;;;4.30;2.15;;;;;;;;;;5091688;28;20107;-72
2023/04/11 11:23:26;;;;;;;6.05;1.88;;;;;;;;;;5093718;28;20024;-71
2023/04/11 11:25:56;;;;;;;6.43;1.77;;;;;;;;;;5093729;28;20020;-73
2023/04/11 11:28:22;;;;;;;6.25;1.65;;;;;;;;;;5090510;28;20621;-71
2023/04/11 11:30:55;;;;;;;4.60;1.80;;;;;;;;;;5093359;28;20115;-72
2023/04/11 11:33:22;;;;;;;3.80;1.42;;;;;;;;;;5091970;28;20502;-71
2023/04/11 11:36:03;;;;;;;2.55;1.20;;;;;;;;;;5093212;28;20028;-73
2023/04/11 11:38:29;;;;;;;5.30;2.15;;;;;;;;;;5072251;28;20536;-71
2023/04/11 11:40:56;;;;;;;5.78;2.45;;;;;;;;;;5071588;28;20047;-71
2023/04/11 11:43:22;;;;;;;5.60;1.95;;;;;;;;;;5073288;28;20020;-73
2023/04/11 11:46:06;;;;;;;3.65;1.80;;;;;;;;;;5084110;28;20478;-71
2023/04/11 11:48:32;;;;;;;5.25;1.58;;;;;;;;;;5092369;28;20051;-72
2023/04/11 11:50:58;;;;;;;2.08;1.30;;;;;;;;;;5093438;28;20165;-71
2023/04/11 11:53:25;;;;;;;3.35;1.75;;;;;;;;;;5094591;28;20066;-70
2023/04/11 11:55:52;;;;;;;2.42;1.08;;;;;;;;;;5092622;28;20024;-72
2023/04/11 11:58:18;;;;;;;2.63;1.48;;;;;;;;;;5090387;28;20042;-72
2023/04/11 12:00:48;;;;;;;4.28;1.73;;;;;;;;;;5091919;28;20031;-73
2023/04/11 12:03:17;;;;;;;2.50;1.55;;;;;;;;;;5092620;28;20066;-71
2023/04/11 12:05:43;;;;;;;4.25;1.48;;;;;;;;;;5092687;28;20119;-71
2023/04/11 12:08:10;;;;;;;4.80;1.80;;;;;;;;;;5091732;28;20048;-72
2023/04/11 12:10:36;;;;;;;5.00;1.90;;;;;;;;;;5091432;28;20066;-71
2023/04/11 12:13:02;;;;;;;3.50;1.63;;;;;;;;;;5092770;28;20027;-71
2023/04/11 12:15:28;;;;;;;2.53;1.40;;;;;;;;;;5091117;28;20020;-71
2023/04/11 12:17:54;;;;;;;1.60;1.17;;;;;;;;;;5090909;28;20020;-71
2023/04/11 12:20:25;;;;;;;2.85;1.60;;;;;;;;;;5092240;28;20130;-70
2023/04/11 12:22:51;;;;;;;1.83;1.30;;;;;;;;;;5092452;28;20024;-70
2023/04/11 12:25:17;;;;;;;1.63;1.23;;;;;;;;;;5092542;28;20093;-70
2023/04/11 12:27:44;;;;;;;4.45;2.10;;;;;;;;;;5091432;28;20024;-71
2023/04/11 12:30:10;;;;;;;2.70;1.45;;;;;;;;;;5092180;28;20077;-73
2023/04/11 12:32:37;;;;;;;3.63;1.67;;;;;;;;;;5091435;28;20024;-72
2023/04/11 12:35:04;;;;;;;3.40;1.60;;;;;;;;;;5091054;28;20035;-72
2023/04/11 12:37:30;;;;;;;3.33;1.55;;;;;;;;;;5091516;28;20031;-71
2023/04/11 12:39:56;;;;;;;3.45;1.75;;;;;;;;;;5091971;28;20075;-72
2023/04/11 12:42:22;;;;;;;2.72;1.67;;;;;;;;;;5091851;28;20458;-71
2023/04/11 12:44:49;;;;;;;3.60;1.90;;;;;;;;;;5091916;28;20020;-71
2023/04/11 12:47:15;;;;;;;5.30;1.98;;;;;;;;;;5091139;28;20070;-70
2023/04/11 12:49:41;;;;;;;3.75;2.13;;;;;;;;;;5091758;28;20093;-71
2023/04/11 12:52:08;;;;;;;4.53;1.95;;;;;;;;;;5091821;28;20060;-71
2023/04/11 12:54:34;;;;;;;3.90;1.70;;;;;;;;;;5092212;28;20435;-72
2023/04/11 12:57:01;;;;;;;2.38;1.63;;;;;;;;;;5091744;28;20039;-73
2023/04/11 12:59:27;;;;;;;3.90;1.45;;;;;;;;;;5091376;28;20174;-72
2023/04/11 13:01:53;;;;;;;3.10;1.75;;;;;;;;;;5090495;28;20153;-72
2023/04/11 13:04:19;;;;;;;5.55;1.73;;;;;;;;;;5092223;28;20024;-70
2023/04/11 13:06:46;;;;;;;4.15;1.58;;;;;;;;;;5091832;28;20077;-73
2023/04/11 13:09:12;;;;;;;3.00;1.88;;;;;;;;;;5090361;28;20478;-71
2023/04/11 13:11:39;;;;;;;4.18;1.50;;;;;;;;;;5091779;28;20028;-70
2023/04/11 13:14:05;;;;;;;4.97;1.60;;;;;;;;;;5091677;28;20412;-73
2023/04/11 13:16:31;;;;;;;2.28;1.40;;;;;;;;;;5091419;28;20089;-71
2023/04/11 13:18:57;;;;;;;4.30;1.83;;;;;;;;;;5090724;28;20024;-72
2023/04/11 13:21:23;;;;;;;4.90;1.70;;;;;;;;;;5091526;28;20032;-71
2023/04/11 13:23:50;;;;;;;2.80;1.40;;;;;;;;;;5091461;28;20449;-72
2023/04/11 13:26:16;;;;;;;6.38;1.85;;;;;;;;;;5091173;28;20022;-71
2023/04/11 13:28:42;;;;;;;3.78;1.90;;;;;;;;;;5090295;28;20108;-71
2023/04/11 13:31:09;;;;;;;3.60;1.98;;;;;;;;;;5091154;28;20111;-72
2023/04/11 13:33:35;;;;;;;7.00;1.58;;;;;;;;;;5091275;28;20477;-71
2023/04/11 13:36:01;;;;;;;2.95;1.20;;;;;;;;;;5091310;28;20024;-72
2023/04/11 13:38:27;;;;;;;5.18;1.55;;;;;;;;;;5090323;28;20445;-72
2023/04/11 13:40:54;;;;;;;3.70;1.23;;;;;;;;;;5090897;28;20024;-72
2023/04/11 13:43:20;;;;;;;7.65;2.03;;;;;;;;;;5090253;28;20021;-72
2023/04/11 13:45:46;;;;;;;3.90;2.35;;;;;;;;;;5091128;28;20489;-72
2023/04/11 13:48:12;;;;;;;2.55;1.40;;;;;;;;;;5090498;28;20119;-71
2023/04/11 13:50:38;;;;;;;8.85;1.90;;;;;;;;;;5091191;28;20097;-72
2023/04/11 13:53:04;;;;;;;4.75;1.25;;;;;;;;;;5091359;28;20507;-72
2023/04/11 13:55:30;;;;;;;5.38;1.70;;;;;;;;;;5091069;28;20547;-72
2023/04/11 13:57:57;;;;;;;4.05;1.40;;;;;;;;;;5089499;28;20039;-72
2023/04/11 14:00:23;;;;;;;5.00;1.52;;;;;;;;;;5090240;28;20036;-73
2023/04/11 14:02:49;;;;;;;3.33;1.88;;;;;;;;;;5091108;28;20016;-72
2023/04/11 14:05:15;;;;;;;4.00;1.83;;;;;;;;;;5090992;28;20016;-72
2023/04/11 14:07:41;;;;;;;4.05;1.40;;;;;;;;;;5090280;28;20393;-73
2023/04/11 14:10:07;;;;;;;5.10;1.60;;;;;;;;;;5090939;28;20048;-72
2023/04/11 14:12:33;;;;;;;5.43;1.98;;;;;;;;;;5089784;28;20439;-71
2023/04/11 14:14:59;;;;;;;4.50;1.65;;;;;;;;;;5092111;28;20031;-73
2023/04/11 14:17:25;;;;;;;3.50;1.50;;;;;;;;;;5089854;28;20027;-73
2023/04/11 14:19:51;;;;;;;2.80;1.58;;;;;;;;;;5091297;28;20020;-72
2023/04/11 14:22:17;;;;;;;3.80;1.88;;;;;;;;;;5090813;28;20384;-72
2023/04/11 14:24:43;;;;;;;2.92;1.50;;;;;;;;;;5089426;28;20558;-72
2023/04/11 14:27:10;;;;;;;3.95;2.25;;;;;;;;;;5089036;28;20438;-72
2023/04/11 14:29:36;;;;;;;4.18;1.80;;;;;;;;;;5090710;28;20406;-70
2023/04/11 14:32:02;;;;;;;5.22;1.80;;;;;;;;;;5089750;28;20024;-72
2023/04/11 14:34:28;;;;;;;5.50;2.13;;;;;;;;;;5091040;28;20020;-72
2023/04/11 14:36:55;;;;;;;5.25;1.73;;;;;;;;;;5091094;28;20024;-72
2023/04/11 14:39:21;;;;;;;3.78;1.58;;;;;;;;;;5090221;28;20367;-71
2023/04/11 14:41:47;;;;;;;9.10;2.35;;;;;;;;;;5089196;28;20149;-72